sensor_id;sensor_type;location;lat;lon;timestamp;temperature;humidity
23669;DHT22;12011;47.422;15.018;2024-03-06T00:01:22;0.50;99.90
23669;DHT22;12011;47.422;15.018;2024-03-06T00:03:57;0.40;99.90
23669;DHT22;12011;47.422;15.018;2024-03-06T00:06:29;0.40;99.90
23669;DHT22;12011;47.422;15.018;2024-03-06T00:09:02;0.40;99.90
23669;DHT22;12011;47.422;15.018;2024-03-06T00:11:32;0.50;99.90
23669;DHT22;12011;47.422;15.018;2024-03-06T00:14:05;0.50;99.90
23669;DHT22;12011;47.422;15.018;2024-03-06T00:16:42;0.40;99.90
23669;DHT22;12011;47.422;15.018;2024-03-06T00:19:15;0.50;99.90
23669;DHT22;12011;47.422;15.018;2024-03-06T00:21:57;0.50;99.90
23669;DHT22;12011;47.422;15.018;2024-03-06T00:24:34;0.50;99.90
23669;DHT22;12011;47.422;15.018;2024-03-06T00:27:10;0.90;99.90
23669;DHT22;12011;47.422;15.018;2024-03-06T00:29:46;0.50;99.90
23669;DHT22;12011;47.422;15.018;2024-03-06T00:32:16;0.60;99.90
23669;DHT22;12011;47.422;15.018;2024-03-06T00:34:46;0.60;99.90
23669;DHT22;12011;47.422;15.018;2024-03-06T00:37:16;0.80;99.90
23669;DHT22;12011;47.422;15.018;2024-03-06T00:39:49;0.90;99.90
23669;DHT22;12011;47.422;15.018;2024-03-06T00:42:24;0.00;99.90
23669;DHT22;12011;47.422;15.018;2024-03-06T00:45:12;0.80;99.90
23669;DHT22;12011;47.422;15.018;2024-03-06T00:47:54;0.80;99.90
23669;DHT22;12011;47.422;15.018;2024-03-06T00:50:28;0.90;99.90
23669;DHT22;12011;47.422;15.018;2024-03-06T00:53:05;0.90;99.90
23669;DHT22;12011;47.422;15.018;2024-03-06T00:55:40;0.90;99.90
23669;DHT22;12011;47.422;15.018;2024-03-06T00:58:13;0.90;99.90
23669;DHT22;12011;47.422;15.018;2024-03-06T01:00:46;0.90;99.90
23669;DHT22;12011;47.422;15.018;2024-03-06T01:03:20;0.90;99.90
23669;DHT22;12011;47.422;15.018;2024-03-06T01:05:56;0.80;99.90
23669;DHT22;12011;47.422;15.018;2024-03-06T01:08:30;0.70;99.90
23669;DHT22;12011;47.422;15.018;2024-03-06T01:11:05;0.70;99.90
23669;DHT22;12011;47.422;15.018;2024-03-06T01:13:38;0.60;99.90
23669;DHT22;12011;47.422;15.018;2024-03-06T01:16:09;0.70;99.90
23669;DHT22;12011;47.422;15.018;2024-03-06T01:18:39;0.60;99.90
23669;DHT22;12011;47.422;15.018;2024-03-06T01:21:09;0.50;99.90
23669;DHT22;12011;47.422;15.018;2024-03-06T01:23:45;0.40;99.90
23669;DHT22;12011;47.422;15.018;2024-03-06T01:26:21;0.40;99.90
23669;DHT22;12011;47.422;15.018;2024-03-06T01:28:54;0.30;99.90
23669;DHT22;12011;47.422;15.018;2024-03-06T01:31:33;0.30;99.90
23669;DHT22;12011;47.422;15.018;2024-03-06T01:34:08;0.20;99.90
23669;DHT22;12011;47.422;15.018;2024-03-06T01:36:46;0.20;99.90
23669;DHT22;12011;47.422;15.018;2024-03-06T01:39:20;0.20;99.90
23669;DHT22;12011;47.422;15.018;2024-03-06T01:41:59;0.10;99.90
23669;DHT22;12011;47.422;15.018;2024-03-06T01:44:33;0.10;99.90
23669;DHT22;12011;47.422;15.018;2024-03-06T01:47:04;-0.10;99.90
23669;DHT22;12011;47.422;15.018;2024-03-06T01:49:49;-0.10;99.90
23669;DHT22;12011;47.422;15.018;2024-03-06T01:52:30;-0.20;99.90
23669;DHT22;12011;47.422;15.018;2024-03-06T01:55:00;-0.10;99.90
23669;DHT22;12011;47.422;15.018;2024-03-06T01:57:35;-0.10;99.90
23669;DHT22;12011;47.422;15.018;2024-03-06T02:00:07;-0.10;99.90
23669;DHT22;12011;47.422;15.018;2024-03-06T02:02:41;-0.10;99.90
23669;DHT22;12011;47.422;15.018;2024-03-06T02:05:12;0.70;99.90
23669;DHT22;12011;47.422;15.018;2024-03-06T02:07:54;0.40;99.90
23669;DHT22;12011;47.422;15.018;2024-03-06T02:10:33;0.10;99.90
23669;DHT22;12011;47.422;15.018;2024-03-06T02:13:08;0.10;99.90
23669;DHT22;12011;47.422;15.018;2024-03-06T02:15:37;-0.30;99.90
23669;DHT22;12011;47.422;15.018;2024-03-06T02:18:07;0.20;99.90
23669;DHT22;12011;47.422;15.018;2024-03-06T02:20:41;0.20;99.90
23669;DHT22;12011;47.422;15.018;2024-03-06T02:23:12;1.10;99.90
23669;DHT22;12011;47.422;15.018;2024-03-06T02:25:47;0.10;99.90
23669;DHT22;12011;47.422;15.018;2024-03-06T02:28:16;0.30;99.90
23669;DHT22;12011;47.422;15.018;2024-03-06T02:30:50;0.10;99.90
23669;DHT22;12011;47.422;15.018;2024-03-06T02:33:20;0.20;99.90
23669;DHT22;12011;47.422;15.018;2024-03-06T02:35:56;0.30;99.90
23669;DHT22;12011;47.422;15.018;2024-03-06T02:38:28;0.20;99.90
23669;DHT22;12011;47.422;15.018;2024-03-06T02:40:57;1.10;99.90
23669;DHT22;12011;47.422;15.018;2024-03-06T02:43:27;0.10;99.90
23669;DHT22;12011;47.422;15.018;2024-03-06T02:45:59;1.30;99.90
23669;DHT22;12011;47.422;15.018;2024-03-06T02:48:29;0.20;99.90
23669;DHT22;12011;47.422;15.018;2024-03-06T02:51:02;0.10;99.90
23669;DHT22;12011;47.422;15.018;2024-03-06T02:53:32;0.10;99.90
23669;DHT22;12011;47.422;15.018;2024-03-06T02:56:01;0.50;99.90
23669;DHT22;12011;47.422;15.018;2024-03-06T02:58:31;0.00;99.90
23669;DHT22;12011;47.422;15.018;2024-03-06T03:01:01;1.10;99.90
23669;DHT22;12011;47.422;15.018;2024-03-06T03:03:30;0.80;99.90
23669;DHT22;12011;47.422;15.018;2024-03-06T03:06:03;-0.20;99.90
23669;DHT22;12011;47.422;15.018;2024-03-06T03:08:35;-1.00;99.90
23669;DHT22;12011;47.422;15.018;2024-03-06T03:11:06;-0.30;99.90
23669;DHT22;12011;47.422;15.018;2024-03-06T03:13:42;-0.30;99.90
23669;DHT22;12011;47.422;15.018;2024-03-06T03:16:17;-0.60;99.90
23669;DHT22;12011;47.422;15.018;2024-03-06T03:18:50;-0.70;99.90
23669;DHT22;12011;47.422;15.018;2024-03-06T03:21:23;-0.30;99.90
23669;DHT22;12011;47.422;15.018;2024-03-06T03:23:52;0.20;99.90
23669;DHT22;12011;47.422;15.018;2024-03-06T03:26:22;-0.60;99.90
23669;DHT22;12011;47.422;15.018;2024-03-06T03:28:51;-0.50;99.90
23669;DHT22;12011;47.422;15.018;2024-03-06T03:31:21;-0.50;99.90
23669;DHT22;12011;47.422;15.018;2024-03-06T03:33:54;-0.60;99.90
23669;DHT22;12011;47.422;15.018;2024-03-06T03:36:26;-0.30;99.90
23669;DHT22;12011;47.422;15.018;2024-03-06T03:38:57;-0.50;99.90
23669;DHT22;12011;47.422;15.018;2024-03-06T03:41:29;-0.50;99.90
23669;DHT22;12011;47.422;15.018;2024-03-06T03:43:59;-0.50;99.90
23669;DHT22;12011;47.422;15.018;2024-03-06T03:46:34;-0.50;99.90
23669;DHT22;12011;47.422;15.018;2024-03-06T03:49:04;-0.50;99.90
23669;DHT22;12011;47.422;15.018;2024-03-06T03:51:38;-0.40;99.90
23669;DHT22;12011;47.422;15.018;2024-03-06T03:54:08;-0.30;99.90
23669;DHT22;12011;47.422;15.018;2024-03-06T03:56:37;-0.40;99.90
23669;DHT22;12011;47.422;15.018;2024-03-06T03:59:08;0.60;99.90
23669;DHT22;12011;47.422;15.018;2024-03-06T04:01:38;-0.30;99.90
23669;DHT22;12011;47.422;15.018;2024-03-06T04:04:10;-0.30;99.90
23669;DHT22;12011;47.422;15.018;2024-03-06T04:06:42;-0.30;99.90
23669;DHT22;12011;47.422;15.018;2024-03-06T04:09:13;-0.30;99.90
23669;DHT22;12011;47.422;15.018;2024-03-06T04:11:45;-0.20;99.90
23669;DHT22;12011;47.422;15.018;2024-03-06T04:14:14;0.60;99.90
23669;DHT22;12011;47.422;15.018;2024-03-06T04:16:49;0.00;99.90
23669;DHT22;12011;47.422;15.018;2024-03-06T04:19:18;0.30;99.90
23669;DHT22;12011;47.422;15.018;2024-03-06T04:21:51;1.10;99.90
23669;DHT22;12011;47.422;15.018;2024-03-06T04:24:22;0.10;99.90
23669;DHT22;12011;47.422;15.018;2024-03-06T04:26:56;0.10;99.90
23669;DHT22;12011;47.422;15.018;2024-03-06T04:29:28;0.30;99.90
23669;DHT22;12011;47.422;15.018;2024-03-06T04:31:57;0.30;99.90
23669;DHT22;12011;47.422;15.018;2024-03-06T04:34:32;0.90;99.90
23669;DHT22;12011;47.422;15.018;2024-03-06T04:37:05;0.40;99.90
23669;DHT22;12011;47.422;15.018;2024-03-06T04:39:35;0.40;99.90
23669;DHT22;12011;47.422;15.018;2024-03-06T04:42:05;0.50;99.90
23669;DHT22;12011;47.422;15.018;2024-03-06T04:44:36;0.50;99.90
23669;DHT22;12011;47.422;15.018;2024-03-06T04:47:06;0.60;99.90
23669;DHT22;12011;47.422;15.018;2024-03-06T04:49:36;0.40;99.90
23669;DHT22;12011;47.422;15.018;2024-03-06T04:52:08;0.80;99.90
23669;DHT22;12011;47.422;15.018;2024-03-06T04:54:38;1.30;99.90
23669;DHT22;12011;47.422;15.018;2024-03-06T04:57:08;0.90;99.90
23669;DHT22;12011;47.422;15.018;2024-03-06T04:59:46;0.50;99.90
23669;DHT22;12011;47.422;15.018;2024-03-06T05:02:17;0.60;99.90
23669;DHT22;12011;47.422;15.018;2024-03-06T05:04:47;0.60;99.90
23669;DHT22;12011;47.422;15.018;2024-03-06T05:07:19;1.60;99.90
23669;DHT22;12011;47.422;15.018;2024-03-06T05:09:50;0.60;99.90
23669;DHT22;12011;47.422;15.018;2024-03-06T05:12:23;0.70;99.90
23669;DHT22;12011;47.422;15.018;2024-03-06T05:14:55;0.80;99.90
23669;DHT22;12011;47.422;15.018;2024-03-06T05:17:25;1.10;99.90
23669;DHT22;12011;47.422;15.018;2024-03-06T05:19:55;0.80;99.90
23669;DHT22;12011;47.422;15.018;2024-03-06T05:22:29;0.80;99.90
23669;DHT22;12011;47.422;15.018;2024-03-06T05:24:59;0.80;99.90
23669;DHT22;12011;47.422;15.018;2024-03-06T05:27:32;1.90;99.90
23669;DHT22;12011;47.422;15.018;2024-03-06T05:30:01;0.90;99.90
23669;DHT22;12011;47.422;15.018;2024-03-06T05:32:35;1.40;99.90
23669;DHT22;12011;47.422;15.018;2024-03-06T05:35:05;1.10;99.90
23669;DHT22;12011;47.422;15.018;2024-03-06T05:37:40;0.90;99.90
23669;DHT22;12011;47.422;15.018;2024-03-06T05:40:21;1.00;99.90
23669;DHT22;12011;47.422;15.018;2024-03-06T05:42:53;1.00;99.90
23669;DHT22;12011;47.422;15.018;2024-03-06T05:45:23;1.00;99.90
23669;DHT22;12011;47.422;15.018;2024-03-06T05:47:56;1.90;99.90
23669;DHT22;12011;47.422;15.018;2024-03-06T05:50:33;1.40;99.90
23669;DHT22;12011;47.422;15.018;2024-03-06T05:53:11;1.20;99.90
23669;DHT22;12011;47.422;15.018;2024-03-06T05:55:43;1.20;99.90
23669;DHT22;12011;47.422;15.018;2024-03-06T05:58:16;1.20;99.90
23669;DHT22;12011;47.422;15.018;2024-03-06T06:00:49;1.30;99.90
23669;DHT22;12011;47.422;15.018;2024-03-06T06:03:19;1.30;99.90
23669;DHT22;12011;47.422;15.018;2024-03-06T06:05:48;1.40;99.90
23669;DHT22;12011;47.422;15.018;2024-03-06T06:08:20;1.30;99.90
23669;DHT22;12011;47.422;15.018;2024-03-06T06:10:50;1.70;99.90
23669;DHT22;12011;47.422;15.018;2024-03-06T06:13:21;1.40;99.90
23669;DHT22;12011;47.422;15.018;2024-03-06T06:15:50;1.50;99.90
23669;DHT22;12011;47.422;15.018;2024-03-06T06:18:19;1.60;99.90
23669;DHT22;12011;47.422;15.018;2024-03-06T06:20:49;1.60;99.90
23669;DHT22;12011;47.422;15.018;2024-03-06T06:23:21;1.60;99.90
23669;DHT22;12011;47.422;15.018;2024-03-06T06:25:50;1.70;99.90
23669;DHT22;12011;47.422;15.018;2024-03-06T06:28:20;1.70;99.90
23669;DHT22;12011;47.422;15.018;2024-03-06T06:30:49;1.70;99.90
23669;DHT22;12011;47.422;15.018;2024-03-06T06:33:19;2.10;99.90
23669;DHT22;12011;47.422;15.018;2024-03-06T06:35:49;1.80;99.90
23669;DHT22;12011;47.422;15.018;2024-03-06T06:38:22;1.90;99.90
23669;DHT22;12011;47.422;15.018;2024-03-06T06:40:52;2.10;99.90
23669;DHT22;12011;47.422;15.018;2024-03-06T06:43:21;2.00;99.90
23669;DHT22;12011;47.422;15.018;2024-03-06T06:45:51;2.10;99.90
23669;DHT22;12011;47.422;15.018;2024-03-06T06:48:20;2.20;99.90
23669;DHT22;12011;47.422;15.018;2024-03-06T06:50:49;2.30;99.90
23669;DHT22;12011;47.422;15.018;2024-03-06T06:53:21;2.40;99.90
23669;DHT22;12011;47.422;15.018;2024-03-06T06:55:51;2.50;99.90
23669;DHT22;12011;47.422;15.018;2024-03-06T06:58:20;2.60;99.90
23669;DHT22;12011;47.422;15.018;2024-03-06T07:00:49;2.70;99.90
23669;DHT22;12011;47.422;15.018;2024-03-06T07:03:19;2.80;99.90
23669;DHT22;12011;47.422;15.018;2024-03-06T07:05:52;2.90;99.90
23669;DHT22;12011;47.422;15.018;2024-03-06T07:08:24;3.00;99.90
23669;DHT22;12011;47.422;15.018;2024-03-06T07:10:53;3.10;99.90
23669;DHT22;12011;47.422;15.018;2024-03-06T07:13:23;3.30;99.90
23669;DHT22;12011;47.422;15.018;2024-03-06T07:15:53;3.50;99.90
23669;DHT22;12011;47.422;15.018;2024-03-06T07:18:22;3.40;99.90
23669;DHT22;12011;47.422;15.018;2024-03-06T07:20:51;3.60;99.90
23669;DHT22;12011;47.422;15.018;2024-03-06T07:23:23;3.60;99.90
23669;DHT22;12011;47.422;15.018;2024-03-06T07:25:53;3.70;99.90
23669;DHT22;12011;47.422;15.018;2024-03-06T07:28:23;3.70;99.90
23669;DHT22;12011;47.422;15.018;2024-03-06T07:30:53;4.10;99.90
23669;DHT22;12011;47.422;15.018;2024-03-06T07:33:22;3.80;99.90
23669;DHT22;12011;47.422;15.018;2024-03-06T07:35:51;3.80;99.90
23669;DHT22;12011;47.422;15.018;2024-03-06T07:38:21;3.80;99.90
23669;DHT22;12011;47.422;15.018;2024-03-06T07:40:54;3.80;99.90
23669;DHT22;12011;47.422;15.018;2024-03-06T07:43:23;3.90;99.90
23669;DHT22;12011;47.422;15.018;2024-03-06T07:45:53;4.00;99.90
23669;DHT22;12011;47.422;15.018;2024-03-06T07:48:22;4.00;99.90
23669;DHT22;12011;47.422;15.018;2024-03-06T07:50:52;4.00;99.90
23669;DHT22;12011;47.422;15.018;2024-03-06T07:53:23;4.30;99.90
23669;DHT22;12011;47.422;15.018;2024-03-06T07:55:53;4.10;99.90
23669;DHT22;12011;47.422;15.018;2024-03-06T07:58:22;4.40;99.90
23669;DHT22;12011;47.422;15.018;2024-03-06T08:00:52;4.20;99.90
23669;DHT22;12011;47.422;15.018;2024-03-06T08:03:22;4.20;99.90
23669;DHT22;12011;47.422;15.018;2024-03-06T08:05:52;4.30;99.90
23669;DHT22;12011;47.422;15.018;2024-03-06T08:08:25;4.40;99.90
23669;DHT22;12011;47.422;15.018;2024-03-06T08:10:54;4.40;99.90
23669;DHT22;12011;47.422;15.018;2024-03-06T08:13:24;4.40;99.90
23669;DHT22;12011;47.422;15.018;2024-03-06T08:15:53;4.50;99.90
23669;DHT22;12011;47.422;15.018;2024-03-06T08:18:22;4.60;99.90
23669;DHT22;12011;47.422;15.018;2024-03-06T08:20:53;4.90;99.90
23669;DHT22;12011;47.422;15.018;2024-03-06T08:23:25;4.70;99.90
23669;DHT22;12011;47.422;15.018;2024-03-06T08:25:56;4.70;99.90
23669;DHT22;12011;47.422;15.018;2024-03-06T08:28:26;4.80;99.90
23669;DHT22;12011;47.422;15.018;2024-03-06T08:30:55;4.90;99.90
23669;DHT22;12011;47.422;15.018;2024-03-06T08:33:24;5.00;99.90
23669;DHT22;12011;47.422;15.018;2024-03-06T08:35:54;5.10;99.90
23669;DHT22;12011;47.422;15.018;2024-03-06T08:38:26;5.20;99.90
23669;DHT22;12011;47.422;15.018;2024-03-06T08:40:56;5.30;99.90
23669;DHT22;12011;47.422;15.018;2024-03-06T08:43:25;5.50;99.90
23669;DHT22;12011;47.422;15.018;2024-03-06T08:45:54;5.50;99.90
23669;DHT22;12011;47.422;15.018;2024-03-06T08:48:24;5.60;99.90
23669;DHT22;12011;47.422;15.018;2024-03-06T08:50:54;5.70;99.90
23669;DHT22;12011;47.422;15.018;2024-03-06T08:53:26;5.80;99.90
23669;DHT22;12011;47.422;15.018;2024-03-06T08:55:56;5.70;99.90
23669;DHT22;12011;47.422;15.018;2024-03-06T08:58:25;5.70;99.90
23669;DHT22;12011;47.422;15.018;2024-03-06T09:00:55;5.80;99.90
23669;DHT22;12011;47.422;15.018;2024-03-06T09:03:25;6.00;99.90
23669;DHT22;12011;47.422;15.018;2024-03-06T09:05:54;6.10;99.90
23669;DHT22;12011;47.422;15.018;2024-03-06T09:08:26;6.20;99.90
23669;DHT22;12011;47.422;15.018;2024-03-06T09:10:56;6.30;99.90
23669;DHT22;12011;47.422;15.018;2024-03-06T09:13:25;6.40;99.90
23669;DHT22;12011;47.422;15.018;2024-03-06T09:15:55;6.50;99.90
23669;DHT22;12011;47.422;15.018;2024-03-06T09:18:24;6.60;99.90
23669;DHT22;12011;47.422;15.018;2024-03-06T09:20:54;6.70;99.90
23669;DHT22;12011;47.422;15.018;2024-03-06T09:23:26;6.80;99.90
23669;DHT22;12011;47.422;15.018;2024-03-06T09:25:56;6.80;99.90
23669;DHT22;12011;47.422;15.018;2024-03-06T09:28:25;6.90;99.90
23669;DHT22;12011;47.422;15.018;2024-03-06T09:30:55;6.90;99.90
23669;DHT22;12011;47.422;15.018;2024-03-06T09:33:24;6.90;99.90
23669;DHT22;12011;47.422;15.018;2024-03-06T09:35:53;7.00;99.90
23669;DHT22;12011;47.422;15.018;2024-03-06T09:38:27;7.10;99.90
23669;DHT22;12011;47.422;15.018;2024-03-06T09:40:57;7.00;99.90
23669;DHT22;12011;47.422;15.018;2024-03-06T09:43:26;7.30;99.90
23669;DHT22;12011;47.422;15.018;2024-03-06T09:45:56;7.40;99.90
23669;DHT22;12011;47.422;15.018;2024-03-06T09:48:28;7.50;99.90
23669;DHT22;12011;47.422;15.018;2024-03-06T09:51:01;7.70;99.90
23669;DHT22;12011;47.422;15.018;2024-03-06T09:53:34;7.80;99.90
23669;DHT22;12011;47.422;15.018;2024-03-06T09:56:04;7.90;99.90
23669;DHT22;12011;47.422;15.018;2024-03-06T09:58:35;8.00;99.90
23669;DHT22;12011;47.422;15.018;2024-03-06T10:01:05;7.90;99.90
23669;DHT22;12011;47.422;15.018;2024-03-06T10:03:38;7.90;99.90
23669;DHT22;12011;47.422;15.018;2024-03-06T10:06:09;8.30;99.90
23669;DHT22;12011;47.422;15.018;2024-03-06T10:08:44;8.20;99.90
23669;DHT22;12011;47.422;15.018;2024-03-06T10:11:16;8.30;99.90
23669;DHT22;12011;47.422;15.018;2024-03-06T10:13:47;8.30;99.90
23669;DHT22;12011;47.422;15.018;2024-03-06T10:16:17;8.60;99.90
23669;DHT22;12011;47.422;15.018;2024-03-06T10:18:46;8.70;99.90
23669;DHT22;12011;47.422;15.018;2024-03-06T10:21:16;8.70;99.90
23669;DHT22;12011;47.422;15.018;2024-03-06T10:23:49;8.80;99.90
23669;DHT22;12011;47.422;15.018;2024-03-06T10:26:18;9.00;99.90
23669;DHT22;12011;47.422;15.018;2024-03-06T10:28:48;8.90;98.10
23669;DHT22;12011;47.422;15.018;2024-03-06T10:31:27;9.00;99.90
23669;DHT22;12011;47.422;15.018;2024-03-06T10:33:57;9.10;98.20
23669;DHT22;12011;47.422;15.018;2024-03-06T10:36:27;9.10;95.50
23669;DHT22;12011;47.422;15.018;2024-03-06T10:39:02;9.10;94.60
23669;DHT22;12011;47.422;15.018;2024-03-06T10:41:33;9.30;98.20
23669;DHT22;12011;47.422;15.018;2024-03-06T10:44:05;9.20;95.60
23669;DHT22;12011;47.422;15.018;2024-03-06T10:46:36;9.10;94.30
23669;DHT22;12011;47.422;15.018;2024-03-06T10:49:06;9.30;99.60
23669;DHT22;12011;47.422;15.018;2024-03-06T10:51:38;9.30;93.40
23669;DHT22;12011;47.422;15.018;2024-03-06T10:54:14;9.30;99.50
23669;DHT22;12011;47.422;15.018;2024-03-06T10:56:45;9.60;99.90
23669;DHT22;12011;47.422;15.018;2024-03-06T10:59:20;9.40;93.40
23669;DHT22;12011;47.422;15.018;2024-03-06T11:01:50;9.20;96.00
23669;DHT22;12011;47.422;15.018;2024-03-06T11:04:20;9.50;95.60
23669;DHT22;12011;47.422;15.018;2024-03-06T11:06:50;9.80;97.00
23669;DHT22;12011;47.422;15.018;2024-03-06T11:09:22;9.50;95.90
23669;DHT22;12011;47.422;15.018;2024-03-06T11:11:53;9.90;99.90
23669;DHT22;12011;47.422;15.018;2024-03-06T11:14:24;10.10;93.30
23669;DHT22;12011;47.422;15.018;2024-03-06T11:16:58;10.10;90.60
23669;DHT22;12011;47.422;15.018;2024-03-06T11:19:31;10.30;97.00
23669;DHT22;12011;47.422;15.018;2024-03-06T11:22:01;10.50;93.50
23669;DHT22;12011;47.422;15.018;2024-03-06T11:24:35;9.60;88.10
23669;DHT22;12011;47.422;15.018;2024-03-06T11:27:05;10.50;91.40
23669;DHT22;12011;47.422;15.018;2024-03-06T11:30:03;10.80;91.80
23669;DHT22;12011;47.422;15.018;2024-03-06T11:32:37;10.90;82.30
23669;DHT22;12011;47.422;15.018;2024-03-06T11:35:07;10.90;74.40
23669;DHT22;12011;47.422;15.018;2024-03-06T11:37:46;10.90;75.80
23669;DHT22;12011;47.422;15.018;2024-03-06T11:40:24;10.90;80.50
23669;DHT22;12011;47.422;15.018;2024-03-06T11:42:54;10.90;84.20
23669;DHT22;12011;47.422;15.018;2024-03-06T11:45:23;10.90;90.40
23669;DHT22;12011;47.422;15.018;2024-03-06T11:47:57;10.80;90.00
23669;DHT22;12011;47.422;15.018;2024-03-06T11:50:29;10.50;78.40
23669;DHT22;12011;47.422;15.018;2024-03-06T11:52:59;10.60;87.20
23669;DHT22;12011;47.422;15.018;2024-03-06T11:55:31;10.50;84.40
23669;DHT22;12011;47.422;15.018;2024-03-06T11:58:01;10.60;83.10
23669;DHT22;12011;47.422;15.018;2024-03-06T12:00:31;10.70;91.90
23669;DHT22;12011;47.422;15.018;2024-03-06T12:03:00;10.90;90.30
23669;DHT22;12011;47.422;15.018;2024-03-06T12:05:30;10.80;84.40
23669;DHT22;12011;47.422;15.018;2024-03-06T12:08:00;10.90;83.00
23669;DHT22;12011;47.422;15.018;2024-03-06T12:10:37;11.00;77.50
23669;DHT22;12011;47.422;15.018;2024-03-06T12:13:08;11.20;72.20
23669;DHT22;12011;47.422;15.018;2024-03-06T12:15:37;11.40;74.40
23669;DHT22;12011;47.422;15.018;2024-03-06T12:18:07;11.60;73.40
23669;DHT22;12011;47.422;15.018;2024-03-06T12:20:41;11.90;70.60
23669;DHT22;12011;47.422;15.018;2024-03-06T12:23:20;11.90;70.90
23669;DHT22;12011;47.422;15.018;2024-03-06T12:26:05;12.20;75.90
23669;DHT22;12011;47.422;15.018;2024-03-06T12:28:36;12.20;66.30
23669;DHT22;12011;47.422;15.018;2024-03-06T12:31:06;12.20;63.50
23669;DHT22;12011;47.422;15.018;2024-03-06T12:33:36;11.90;62.60
23669;DHT22;12011;47.422;15.018;2024-03-06T12:36:07;12.30;80.80
23669;DHT22;12011;47.422;15.018;2024-03-06T12:38:38;12.50;64.50
23669;DHT22;12011;47.422;15.018;2024-03-06T12:41:11;12.60;59.30
23669;DHT22;12011;47.422;15.018;2024-03-06T12:43:40;12.40;59.20
23669;DHT22;12011;47.422;15.018;2024-03-06T12:46:10;12.60;60.40
23669;DHT22;12011;47.422;15.018;2024-03-06T12:48:40;12.90;57.90
23669;DHT22;12011;47.422;15.018;2024-03-06T12:51:11;12.50;57.80
23669;DHT22;12011;47.422;15.018;2024-03-06T12:53:40;12.30;64.90
23669;DHT22;12011;47.422;15.018;2024-03-06T12:56:12;12.30;61.90
23669;DHT22;12011;47.422;15.018;2024-03-06T12:58:42;12.60;68.30
23669;DHT22;12011;47.422;15.018;2024-03-06T13:01:11;12.80;72.20
23669;DHT22;12011;47.422;15.018;2024-03-06T13:03:41;13.00;64.00
23669;DHT22;12011;47.422;15.018;2024-03-06T13:06:10;12.80;54.20
23669;DHT22;12011;47.422;15.018;2024-03-06T13:08:40;12.90;66.30
23669;DHT22;12011;47.422;15.018;2024-03-06T13:11:12;13.00;58.60
23669;DHT22;12011;47.422;15.018;2024-03-06T13:13:42;12.90;69.80
23669;DHT22;12011;47.422;15.018;2024-03-06T13:16:11;12.80;55.00
23669;DHT22;12011;47.422;15.018;2024-03-06T13:18:41;12.60;60.90
23669;DHT22;12011;47.422;15.018;2024-03-06T13:21:10;12.60;61.00
23669;DHT22;12011;47.422;15.018;2024-03-06T13:23:39;12.80;70.70
23669;DHT22;12011;47.422;15.018;2024-03-06T13:26:12;12.90;60.30
23669;DHT22;12011;47.422;15.018;2024-03-06T13:28:42;13.10;57.00
23669;DHT22;12011;47.422;15.018;2024-03-06T13:31:12;13.00;58.60
23669;DHT22;12011;47.422;15.018;2024-03-06T13:33:41;13.10;62.20
23669;DHT22;12011;47.422;15.018;2024-03-06T13:36:11;13.40;63.60
23669;DHT22;12011;47.422;15.018;2024-03-06T13:38:41;13.50;61.10
23669;DHT22;12011;47.422;15.018;2024-03-06T13:41:13;13.50;54.80
23669;DHT22;12011;47.422;15.018;2024-03-06T13:43:43;13.50;58.70
23669;DHT22;12011;47.422;15.018;2024-03-06T13:46:12;13.30;53.90
23669;DHT22;12011;47.422;15.018;2024-03-06T13:48:42;13.50;61.40
23669;DHT22;12011;47.422;15.018;2024-03-06T13:51:12;13.50;55.60
23669;DHT22;12011;47.422;15.018;2024-03-06T13:53:41;13.30;54.20
23669;DHT22;12011;47.422;15.018;2024-03-06T13:56:13;13.30;55.00
23669;DHT22;12011;47.422;15.018;2024-03-06T13:58:44;13.30;56.20
23669;DHT22;12011;47.422;15.018;2024-03-06T14:01:13;13.10;51.30
23669;DHT22;12011;47.422;15.018;2024-03-06T14:03:43;12.90;59.40
23669;DHT22;12011;47.422;15.018;2024-03-06T14:06:12;12.70;56.10
23669;DHT22;12011;47.422;15.018;2024-03-06T14:08:43;12.70;56.30
23669;DHT22;12011;47.422;15.018;2024-03-06T14:11:15;12.40;53.20
23669;DHT22;12011;47.422;15.018;2024-03-06T14:13:44;12.20;53.90
23669;DHT22;12011;47.422;15.018;2024-03-06T14:16:14;12.10;54.90
23669;DHT22;12011;47.422;15.018;2024-03-06T14:18:43;12.00;55.70
23669;DHT22;12011;47.422;15.018;2024-03-06T14:21:13;11.80;55.90
23669;DHT22;12011;47.422;15.018;2024-03-06T14:23:42;11.80;60.10
23669;DHT22;12011;47.422;15.018;2024-03-06T14:26:15;11.70;60.30
23669;DHT22;12011;47.422;15.018;2024-03-06T14:28:44;11.70;67.30
23669;DHT22;12011;47.422;15.018;2024-03-06T14:31:14;11.80;64.10
23669;DHT22;12011;47.422;15.018;2024-03-06T14:33:43;11.90;67.70
23669;DHT22;12011;47.422;15.018;2024-03-06T14:36:15;11.90;72.80
23669;DHT22;12011;47.422;15.018;2024-03-06T14:38:45;11.80;56.10
23669;DHT22;12011;47.422;15.018;2024-03-06T14:41:17;11.90;63.60
23669;DHT22;12011;47.422;15.018;2024-03-06T14:43:47;11.90;65.20
23669;DHT22;12011;47.422;15.018;2024-03-06T14:46:16;11.70;64.90
23669;DHT22;12011;47.422;15.018;2024-03-06T14:48:46;11.80;58.10
23669;DHT22;12011;47.422;15.018;2024-03-06T14:51:15;11.80;56.90
23669;DHT22;12011;47.422;15.018;2024-03-06T14:53:45;11.70;59.50
23669;DHT22;12011;47.422;15.018;2024-03-06T14:56:17;11.50;63.80
23669;DHT22;12011;47.422;15.018;2024-03-06T14:58:47;11.40;70.60
23669;DHT22;12011;47.422;15.018;2024-03-06T15:01:18;11.20;78.00
23669;DHT22;12011;47.422;15.018;2024-03-06T15:03:47;11.10;76.60
23669;DHT22;12011;47.422;15.018;2024-03-06T15:06:17;11.00;99.90
23669;DHT22;12011;47.422;15.018;2024-03-06T15:08:46;10.80;99.40
23669;DHT22;12011;47.422;15.018;2024-03-06T15:11:19;10.70;73.80
23669;DHT22;12011;47.422;15.018;2024-03-06T15:13:50;10.60;86.60
23669;DHT22;12011;47.422;15.018;2024-03-06T15:16:20;10.50;80.50
23669;DHT22;12011;47.422;15.018;2024-03-06T15:18:50;10.40;72.80
23669;DHT22;12011;47.422;15.018;2024-03-06T15:21:23;10.20;76.60
23669;DHT22;12011;47.422;15.018;2024-03-06T15:23:52;10.10;81.80
23669;DHT22;12011;47.422;15.018;2024-03-06T15:26:24;10.00;80.30
23669;DHT22;12011;47.422;15.018;2024-03-06T15:28:54;9.90;75.50
23669;DHT22;12011;47.422;15.018;2024-03-06T15:31:24;9.90;76.80
23669;DHT22;12011;47.422;15.018;2024-03-06T15:33:54;9.90;87.40
23669;DHT22;12011;47.422;15.018;2024-03-06T15:36:23;9.80;94.10
23669;DHT22;12011;47.422;15.018;2024-03-06T15:38:53;9.80;86.80
23669;DHT22;12011;47.422;15.018;2024-03-06T15:41:27;9.70;87.50
23669;DHT22;12011;47.422;15.018;2024-03-06T15:43:57;9.70;91.10
23669;DHT22;12011;47.422;15.018;2024-03-06T15:46:26;9.60;91.60
23669;DHT22;12011;47.422;15.018;2024-03-06T15:48:57;9.50;92.60
23669;DHT22;12011;47.422;15.018;2024-03-06T15:51:29;9.40;91.60